Latest Coastal Weather Observations for Charles Point

IDD60701

Issued at 5:21 pm CST Thursday 8 December 2016 (issued every 10 minutes, with the page automatically refreshed every 10 minutes)

About coastal observations | Map of coastal stations | Coastal observations for NT | Marine services | Other Formats
Station Details ID: 014031 Name: CHARLES POINT Lat: -12.39 Lon: 130.63 Height: 14.0 m
Data from the previous 72 hours. | See also: Recent months for locations in Northern Territory
Date/Time
CST
Temp
°C
Wind Pressure Rain since
9am
mm
Weather Cloud Vis
km
Sea
Height
m
Swell
Dir  Spd
kts
Gust
kts
hPa Trend Height
m
Period
s
Dir
08/05:00pm 33.0 WNW 8 11 1004.3 - 0.0 - - - - - - -
08/04:30pm 33.2 WNW 8 13 1004.1 - 0.0 - - - - - - -
08/04:00pm 33.2 WNW 8 12 1004.1 - 0.0 - - - - - - -
08/03:30pm 33.4 WNW 7 10 1004.4 - 0.0 - - - - - - -
08/03:00pm 33.4 WNW 7 11 1004.7 - 0.0 - - - - - - -
08/02:30pm 33.5 WNW 8 13 1004.8 - 0.0 - - - - - - -
08/02:00pm 33.4 WNW 7 9 1005.4 - 0.0 - - - - - - -
08/01:30pm 32.9 NW 7 9 1005.7 - 0.0 - - - - - - -
08/01:00pm 33.0 NW 5 8 1006.2 - 0.0 - - - - - - -
08/12:30pm 32.5 NNW 6 7 1006.6 - 0.0 - - - - - - -
08/12:00pm 32.7 NW 5 7 1007.0 - 0.0 - - - - - - -
08/11:30am 32.4 NNW 5 7 1007.3 - 0.0 - - - - - - -
08/11:00am 32.3 NNW 4 6 1007.8 - 0.0 - - - - - - -
08/10:30am 32.1 NNW 3 4 1008.1 - 0.0 - - - - - - -
08/10:00am 31.8 NNW 3 5 1008.5 - 0.0 - - - - - - -
08/09:30am 31.6 NW 2 4 1008.7 - 0.0 - - - - - - -
08/09:00am 30.7 N 4 7 1008.5 - 0.0 - - - - - - -
08/08:30am 30.6 NNW 4 6 1008.3 - 0.0 - - - - - - -
08/08:00am 29.9 N 5 7 1007.8 - 0.0 - - - - - - -
08/07:30am 29.5 N 6 8 1007.8 - 0.0 - - - - - - -
08/07:00am 29.0 N 10 12 1007.7 - 0.0 - - - - - - -
08/06:30am 29.0 NNE 7 11 1007.1 - 0.0 - - - - - - -
08/06:00am 27.9 CALM 0 0 1006.8 - 0.0 - - - - - - -
08/05:30am 27.8 CALM 0 1 1006.4 - 0.0 - - - - - - -
08/05:00am 28.4 WSW 1 3 1006.1 - 0.0 - - - - - - -
08/04:30am 29.0 W 2 4 1005.9 - 0.0 - - - - - - -
08/04:00am 29.3 W 3 5 1005.7 - 0.0 - - - - - - -
08/03:30am 29.6 WNW 5 8 1005.6 - 0.0 - - - - - - -
08/03:00am 30.1 WNW 6 9 1005.6 - 0.0 - - - - - - -
08/02:30am 30.3 WNW 7 10 1005.8 - 0.0 - - - - - - -
08/02:00am 30.4 WNW 8 12 1005.8 - 0.0 - - - - - - -
08/01:30am 30.5 WNW 9 12 1006.1 - 0.0 - - - - - - -
08/01:00am 30.5 WNW 9 12 1006.7 - 0.0 - - - - - - -
08/12:30am 30.6 WNW 7 9 1007.1 - 0.0 - - - - - - -
08/12:00am 30.6 NW 7 9 1007.3 - 0.0 - - - - - - -
 
Date/Time
CST
Temp
°C
Wind Pressure Rain since
9am
mm
Weather Cloud Vis
km
Sea
Height
m
Swell
Dir  Spd
kts
Gust
kts
hPa Trend Height
m
Period
s
Dir
07/11:30pm 30.5 WNW 6 9 1007.6 - 0.0 - - - - - - -
07/11:00pm 30.6 NW 7 10 1007.8 - 0.0 - - - - - - -
07/10:30pm 30.7 NW 7 9 1007.7 - 0.0 - - - - - - -
07/10:00pm 29.4 WNW 4 7 1007.3 - 0.0 - - - - - - -
07/09:30pm 29.3 WNW 3 6 1007.2 - 0.0 - - - - - - -
07/09:00pm 29.6 W 2 5 1006.9 - 0.0 - - - - - - -
07/08:30pm 29.8 W 2 4 1006.7 - 0.0 - - - - - - -
07/08:00pm 30.0 W 2 4 1006.6 - 0.0 - - - - - - -
07/07:30pm 30.4 W 3 7 1006.3 - 0.0 - - - - - - -
07/07:00pm 30.6 W 3 6 1006.2 - 0.0 - - - - - - -
07/06:30pm 31.0 W 4 6 1005.9 - 0.0 - - - - - - -
07/06:00pm 31.0 WSW 3 5 1005.6 - 0.0 - - - - - - -
07/05:30pm 31.1 W 4 7 1005.4 - 0.0 - - - - - - -
07/05:00pm 31.3 W 3 7 1005.0 - 0.0 - - - - - - -
07/04:30pm 32.1 W 5 9 1005.1 - 0.0 - - - - - - -
07/04:00pm 33.2 W 7 11 1005.7 - 0.0 - - - - - - -
07/03:30pm 32.9 WNW 8 12 1005.6 - 0.0 - - - - - - -
07/03:00pm 31.8 W 5 11 1006.1 - 0.0 - - - - - - -
07/02:30pm 33.0 WNW 9 14 1006.4 - 0.0 - - - - - - -
07/02:00pm 33.3 WNW 8 11 1006.7 - 0.0 - - - - - - -
07/01:30pm 33.4 WNW 6 11 1006.9 - 0.0 - - - - - - -
07/01:00pm 32.8 WNW 7 9 1007.3 - 0.0 - - - - - - -
07/12:30pm 32.3 WNW 6 8 1007.7 - 0.0 - - - - - - -
07/12:00pm 32.4 NW 4 7 1008.3 - 0.0 - - - - - - -
07/11:30am 31.4 NW 4 6 1008.7 - 0.0 - - - - - - -
07/11:00am 31.6 NNE 5 7 1008.9 - 0.0 - - - - - - -
07/10:30am 32.3 NE 3 5 1009.4 - 0.0 - - - - - - -
07/10:00am 31.8 NNW 3 10 1009.8 - 0.0 - - - - - - -
07/09:30am 31.4 NNW 2 4 1009.8 - 0.0 - - - - - - -
07/09:00am 31.7 W 1 1 1010.0 - 0.0 - - - - - - -
07/08:30am 31.6 CALM 0 0 1010.1 - 0.0 - - - - - - -
07/08:00am 31.6 W 1 2 1009.9 - 0.0 - - - - - - -
07/07:30am 30.1 W 1 2 1009.3 - 0.0 - - - - - - -
07/07:00am 28.0 W 1 1 1009.3 - 0.0 - - - - - - -
07/06:30am 27.3 W 2 3 1009.0 - 0.0 - - - - - - -
07/06:00am 27.2 W 2 3 1008.8 - 0.0 - - - - - - -
07/05:30am 27.8 W 2 2 1008.3 - 0.0 - - - - - - -
07/05:00am 28.8 WNW 2 5 1007.9 - 0.0 - - - - - - -
07/04:30am 28.9 W 3 6 1007.6 - 0.0 - - - - - - -
07/04:00am 28.9 W 3 5 1007.5 - 0.0 - - - - - - -
07/03:30am 28.9 WSW 3 6 1007.4 - 0.0 - - - - - - -
07/03:00am 29.0 W 3 5 1007.4 - 0.0 - - - - - - -
07/02:30am 29.3 W 3 6 1007.5 - 0.0 - - - - - - -
07/02:00am 29.7 WNW 6 10 1007.7 - 0.0 - - - - - - -
07/01:30am 29.9 WNW 8 11 1008.1 - 0.0 - - - - - - -
07/01:00am 29.9 WNW 7 10 1008.5 - 0.0 - - - - - - -
07/12:30am 29.6 WNW 6 8 1008.9 - 0.0 - - - - - - -
07/12:00am 30.1 NW 7 10 1009.4 - 0.0 - - - - - - -
 
Date/Time
CST
Temp
°C
Wind Pressure Rain since
9am
mm
Weather Cloud Vis
km
Sea
Height
m
Swell
Dir  Spd
kts
Gust
kts
hPa Trend Height
m
Period
s
Dir
06/11:30pm 30.1 NW 7 10 1009.5 - 0.0 - - - - - - -
06/11:00pm 30.3 NW 9 13 1009.3 - 0.0 - - - - - - -
06/10:30pm 30.2 NW 11 14 1009.4 - 0.0 - - - - - - -
06/10:00pm 30.4 NW 12 16 1009.2 - 0.0 - - - - - - -
06/09:30pm 30.4 NW 11 14 1009.0 - 0.0 - - - - - - -
06/09:00pm 30.5 NW 10 13 1008.7 - 0.0 - - - - - - -
06/08:30pm 30.6 NW 8 11 1008.2 - 0.0 - - - - - - -
06/08:00pm 30.0 WNW 4 8 1007.6 - 0.0 - - - - - - -
06/07:30pm 29.8 WNW 3 5 1007.0 - 0.0 - - - - - - -
06/07:00pm 29.7 W 2 3 1006.7 - 0.0 - - - - - - -
06/06:30pm 30.2 SW 1 2 1006.6 - 0.0 - - - - - - -
06/06:00pm 30.6 SW 1 3 1006.5 - 0.0 - - - - - - -
06/05:30pm 31.6 NW 4 7 1006.2 - 0.0 - - - - - - -
06/05:00pm 32.3 NW 5 7 1006.0 - 0.0 - - - - - - -
06/04:30pm 32.3 NNW 5 9 1005.8 - 0.0 - - - - - - -
06/04:00pm 32.8 NNW 7 10 1006.2 - 0.0 - - - - - - -
06/03:30pm 32.5 NNW 6 9 1006.7 - 0.0 - - - - - - -
06/03:00pm 32.5 NNW 6 8 1006.9 - 0.0 - - - - - - -
06/02:30pm 32.0 NNW 6 8 1007.3 - 0.0 - - - - - - -
06/02:00pm 32.5 N 5 8 1007.8 - 0.0 - - - - - - -
06/01:30pm 31.8 N 7 9 1008.0 - 0.0 - - - - - - -
06/01:00pm 31.5 N 7 8 1008.4 - 0.0 - - - - - - -
06/12:30pm 31.8 N 6 10 1008.8 - 0.0 - - - - - - -
06/12:00pm 32.1 NNE 5 7 1009.4 - 0.0 - - - - - - -
06/11:30am 33.2 NE 4 6 1009.8 - 0.0 - - - - - - -
06/11:00am 32.3 NE 5 8 1010.2 - 0.0 - - - - - - -
06/10:30am 31.9 NE 4 7 1010.5 - 0.0 - - - - - - -
06/10:00am 32.0 NE 4 7 1010.6 - 0.0 - - - - - - -
06/09:30am 32.0 ENE 4 7 1010.4 - 0.0 - - - - - - -
06/09:00am 31.7 ENE 4 6 1010.6 - 0.0 - - - - - - -
06/08:30am 31.4 ESE 3 7 1010.5 - 0.0 - - - - - - -
06/08:00am 30.4 ESE 3 5 1010.3 - 0.0 - - - - - - -
06/07:30am 28.6 SE 4 6 1010.3 - 0.0 - - - - - - -
06/07:00am 28.2 SE 4 5 1010.1 - 0.0 - - - - - - -
06/06:30am 27.3 SSE 3 4 1009.7 - 0.0 - - - - - - -
06/06:00am 26.4 S 3 3 1009.2 - 0.0 - - - - - - -
06/05:30am 26.7 S 2 3 1008.8 - 0.0 - - - - - - -
06/05:00am 26.9 S 2 3 1008.4 - 0.0 - - - - - - -
06/04:30am 25.9 S 2 3 1008.1 - 0.0 - - - - - - -
06/04:00am 26.4 S 2 2 1008.0 - 0.0 - - - - - - -
06/03:30am 25.9 CALM 0 0 1007.9 - 0.0 - - - - - - -
06/03:00am 26.0 CALM 0 0 1007.8 - 0.0 - - - - - - -
06/02:30am 25.9 CALM 0 0 1007.9 - 0.0 - - - - - - -
06/02:00am 26.3 CALM 0 0 1008.2 - 0.0 - - - - - - -
06/01:30am 26.5 S 2 3 1008.3 - 0.0 - - - - - - -
06/01:00am 26.8 S 3 4 1008.5 - 0.0 - - - - - - -
06/12:30am 27.0 SSW 4 6 1008.7 - 0.0 - - - - - - -
06/12:00am 27.1 SSW 5 10 1009.2 - 0.0 - - - - - - -
 
Date/Time
CST
Temp
°C
Wind Pressure Rain since
9am
mm
Weather Cloud Vis
km
Sea
Height
m
Swell
Dir  Spd
kts
Gust
kts
hPa Trend Height
m
Period
s
Dir
05/11:30pm 27.5 S 3 5 1009.4 - 0.0 - - - - - - -
05/11:00pm 28.4 SSE 5 11 1009.6 - 0.0 - - - - - - -
05/10:30pm 28.2 SW 2 3 1009.5 - 0.0 - - - - - - -
05/10:00pm 29.1 WSW 3 4 1009.0 - 0.0 - - - - - - -
05/09:30pm 30.2 NW 5 8 1009.0 - 0.0 - - - - - - -
05/09:00pm 30.1 NW 6 9 1008.5 - 0.0 - - - - - - -
05/08:30pm 29.9 NNW 8 12 1008.6 - 0.0 - - - - - - -
05/08:00pm 30.3 NW 8 11 1008.0 - 0.0 - - - - - - -
05/07:30pm 30.9 NW 5 11 1007.6 - 0.0 - - - - - - -
05/07:00pm 30.7 WNW 3 6 1007.4 - 0.0 - - - - - - -
05/06:30pm 30.8 W 2 4 1007.2 - 0.0 - - - - - - -
05/06:00pm 31.8 N 2 3 1007.0 - 0.0 - - - - - - -
05/05:30pm 32.2 NNW 5 7 1006.6 - 0.0 - - - - - - -

Other Formats:

Comma delimited format used in spreadsheet applications
http://www.bom.gov.au/fwo/IDD60701/IDD60701.99510.axf

JavaScript Object Notation format (JSON) in row-major order
http://www.bom.gov.au/fwo/IDD60701/IDD60701.99510.json